Corpus Christi, Texas
Current Conditions -  °F | °C
As of 11:51 AM on Thursday 30 Oct 2014 (Local Time) from KCRP Reporting Station
Broken Clouds Broken Clouds  
Wind Chill: 83°   Ceiling: 3100
Heat Index: 87°   Visibility: 10mi
Dew Point: 70°   Wind: 5mph
Humidity: 65%   Direction: 20°NNE
Pressure: 30.09"   Gusts: NA
Location:  27.8°N, 97.4°W
Report Text: KCRP 301651Z 02004KT 10SM FEW016 SCT025 BKN031 28/21 A3009 RMK AO2 SLP188 T02830211
Loading
Personal Weather Stations






























Interactive Weather Map
Tropical Storm Tracking
New forecast layout! Learn more

10-Day Weather Forecast

Advertisements
Track Severe Weather on mobile